KOMK

Details ICAO KOMK
Name OMAK
Region United States
Timezone America/Los_Angeles (UTC-7.0)
Plans Departing 3
Arriving 5
Stats Elevation 1,305 ft / 398 m (AMSL)
Location 48.464411° -119.518055°
Runways 1
Magnetic Variation 15.256° E
Sunrise 2018-05-22 12:10:45 UTC / 2018-05-22 05:10:45 Local
Sunset 2018-05-23 03:41:38 UTC / 2018-05-22 20:41:38 Local
Advertisement - Login to hide

Runways

ID Width Length Bearing (true) Bearing (mag) Surface Threshold Offset Overrun Length
17 150 ft / 46 m 4,667 ft / 1,422 m 189.09° 173.83° Asphalt 0 ft / 0 m 0 ft / 0 m
35 150 ft / 46 m 4,667 ft / 1,422 m 9.09° 353.83° Asphalt 0 ft / 0 m 0 ft / 0 m

Map

Weather


0- 5 10 15 20 25 30 35+ Temperature / ° C

Clouds and Precipitation
Forecast for 2018-05-22 12:00 UTC. Updated 3 hours ago

Ground ~20,000 ft ~40,000 ft Winds

METAR

KOMK 221353Z AUTO 01006KT 10SM CLR 16/10 A2994 RMK AO2 SLP134 T01560100

TAF

Not found

Frequencies

Recorded 118.32 MHz ASOS
Unicom 122.80 MHz CTAF/UNICOM
Warning: Do not use this data for real-world aviation or navigation. No guarantee of current accuracy is given.